sensor_id;sensor_type;location;lat;lon;timestamp;P1;durP1;ratioP1;P2;durP2;ratioP2
4466;SDS011;2246;42.664;23.278;2024-01-16T00:01:46;26.38;;;10.80;;
4466;SDS011;2246;42.664;23.278;2024-01-16T00:04:12;33.78;;;11.60;;
4466;SDS011;2246;42.664;23.278;2024-01-16T00:06:38;28.45;;;11.02;;
4466;SDS011;2246;42.664;23.278;2024-01-16T00:09:05;24.50;;;9.80;;
4466;SDS011;2246;42.664;23.278;2024-01-16T00:11:31;23.40;;;10.10;;
4466;SDS011;2246;42.664;23.278;2024-01-16T00:13:57;24.52;;;9.52;;
4466;SDS011;2246;42.664;23.278;2024-01-16T00:16:23;28.52;;;10.10;;
4466;SDS011;2246;42.664;23.278;2024-01-16T00:18:49;24.02;;;9.90;;
4466;SDS011;2246;42.664;23.278;2024-01-16T00:21:15;22.40;;;9.95;;
4466;SDS011;2246;42.664;23.278;2024-01-16T00:23:41;21.80;;;9.90;;
4466;SDS011;2246;42.664;23.278;2024-01-16T00:26:07;22.63;;;10.15;;
4466;SDS011;2246;42.664;23.278;2024-01-16T00:28:33;22.52;;;10.50;;
4466;SDS011;2246;42.664;23.278;2024-01-16T00:30:59;23.92;;;9.77;;
4466;SDS011;2246;42.664;23.278;2024-01-16T00:33:25;20.73;;;9.85;;
4466;SDS011;2246;42.664;23.278;2024-01-16T00:35:52;26.20;;;10.90;;
4466;SDS011;2246;42.664;23.278;2024-01-16T00:38:18;24.23;;;10.45;;
4466;SDS011;2246;42.664;23.278;2024-01-16T00:40:44;23.30;;;9.75;;
4466;SDS011;2246;42.664;23.278;2024-01-16T00:43:11;24.17;;;9.88;;
4466;SDS011;2246;42.664;23.278;2024-01-16T00:45:37;24.73;;;9.48;;
4466;SDS011;2246;42.664;23.278;2024-01-16T00:48:05;23.45;;;10.10;;
4466;SDS011;2246;42.664;23.278;2024-01-16T00:50:31;19.15;;;8.02;;
4466;SDS011;2246;42.664;23.278;2024-01-16T00:52:58;20.63;;;8.50;;
4466;SDS011;2246;42.664;23.278;2024-01-16T00:55:24;35.10;;;14.35;;
4466;SDS011;2246;42.664;23.278;2024-01-16T00:57:51;30.65;;;12.52;;
4466;SDS011;2246;42.664;23.278;2024-01-16T01:00:17;25.53;;;9.23;;
4466;SDS011;2246;42.664;23.278;2024-01-16T01:02:43;21.30;;;8.95;;
4466;SDS011;2246;42.664;23.278;2024-01-16T01:05:09;14.43;;;7.00;;
4466;SDS011;2246;42.664;23.278;2024-01-16T01:07:35;26.92;;;10.82;;
4466;SDS011;2246;42.664;23.278;2024-01-16T01:10:02;17.33;;;8.20;;
4466;SDS011;2246;42.664;23.278;2024-01-16T01:12:28;16.98;;;6.88;;
4466;SDS011;2246;42.664;23.278;2024-01-16T01:14:54;18.15;;;7.50;;
4466;SDS011;2246;42.664;23.278;2024-01-16T01:17:20;19.83;;;7.60;;
4466;SDS011;2246;42.664;23.278;2024-01-16T01:19:46;24.52;;;10.57;;
4466;SDS011;2246;42.664;23.278;2024-01-16T01:22:12;24.42;;;9.82;;
4466;SDS011;2246;42.664;23.278;2024-01-16T01:24:38;17.20;;;8.82;;
4466;SDS011;2246;42.664;23.278;2024-01-16T01:27:04;18.95;;;8.23;;
4466;SDS011;2246;42.664;23.278;2024-01-16T01:29:31;15.80;;;7.88;;
4466;SDS011;2246;42.664;23.278;2024-01-16T01:31:57;16.52;;;7.38;;
4466;SDS011;2246;42.664;23.278;2024-01-16T01:34:23;24.10;;;10.57;;
4466;SDS011;2246;42.664;23.278;2024-01-16T01:36:49;18.92;;;8.25;;
4466;SDS011;2246;42.664;23.278;2024-01-16T01:39:15;16.80;;;7.47;;
4466;SDS011;2246;42.664;23.278;2024-01-16T01:41:41;15.48;;;7.68;;
4466;SDS011;2246;42.664;23.278;2024-01-16T01:44:07;15.10;;;6.85;;
4466;SDS011;2246;42.664;23.278;2024-01-16T01:46:40;16.23;;;7.55;;
4466;SDS011;2246;42.664;23.278;2024-01-16T01:49:06;15.75;;;7.15;;
4466;SDS011;2246;42.664;23.278;2024-01-16T01:51:32;20.48;;;7.88;;
4466;SDS011;2246;42.664;23.278;2024-01-16T01:53:59;13.68;;;6.63;;
4466;SDS011;2246;42.664;23.278;2024-01-16T01:56:26;12.55;;;6.47;;
4466;SDS011;2246;42.664;23.278;2024-01-16T01:58:56;15.40;;;6.75;;
4466;SDS011;2246;42.664;23.278;2024-01-16T02:01:25;14.55;;;5.93;;
4466;SDS011;2246;42.664;23.278;2024-01-16T02:03:52;16.70;;;7.70;;
4466;SDS011;2246;42.664;23.278;2024-01-16T02:06:21;19.30;;;6.47;;
4466;SDS011;2246;42.664;23.278;2024-01-16T02:08:47;10.25;;;5.38;;
4466;SDS011;2246;42.664;23.278;2024-01-16T02:11:14;13.20;;;5.63;;
4466;SDS011;2246;42.664;23.278;2024-01-16T02:13:40;12.60;;;5.65;;
4466;SDS011;2246;42.664;23.278;2024-01-16T02:16:16;12.07;;;5.50;;
4466;SDS011;2246;42.664;23.278;2024-01-16T02:18:42;12.20;;;5.15;;
4466;SDS011;2246;42.664;23.278;2024-01-16T02:21:08;9.73;;;5.13;;
4466;SDS011;2246;42.664;23.278;2024-01-16T02:23:35;9.98;;;4.97;;
4466;SDS011;2246;42.664;23.278;2024-01-16T02:26:01;10.32;;;5.13;;
4466;SDS011;2246;42.664;23.278;2024-01-16T02:28:27;11.07;;;5.18;;
4466;SDS011;2246;42.664;23.278;2024-01-16T02:30:53;13.35;;;5.68;;
4466;SDS011;2246;42.664;23.278;2024-01-16T02:33:19;11.90;;;5.03;;
4466;SDS011;2246;42.664;23.278;2024-01-16T02:35:45;9.05;;;4.53;;
4466;SDS011;2246;42.664;23.278;2024-01-16T02:38:11;12.60;;;5.55;;
4466;SDS011;2246;42.664;23.278;2024-01-16T02:40:37;11.10;;;5.10;;
4466;SDS011;2246;42.664;23.278;2024-01-16T02:43:03;10.18;;;4.65;;
4466;SDS011;2246;42.664;23.278;2024-01-16T02:45:29;9.38;;;5.00;;
4466;SDS011;2246;42.664;23.278;2024-01-16T02:47:55;11.15;;;5.03;;
4466;SDS011;2246;42.664;23.278;2024-01-16T02:50:21;12.82;;;5.30;;
4466;SDS011;2246;42.664;23.278;2024-01-16T02:52:48;12.75;;;5.28;;
4466;SDS011;2246;42.664;23.278;2024-01-16T02:55:14;14.55;;;6.40;;
4466;SDS011;2246;42.664;23.278;2024-01-16T02:57:40;14.55;;;6.72;;
4466;SDS011;2246;42.664;23.278;2024-01-16T03:00:06;16.80;;;7.63;;
4466;SDS011;2246;42.664;23.278;2024-01-16T03:02:33;18.70;;;7.85;;
4466;SDS011;2246;42.664;23.278;2024-01-16T03:04:59;14.07;;;6.93;;
4466;SDS011;2246;42.664;23.278;2024-01-16T03:07:25;16.73;;;7.60;;
4466;SDS011;2246;42.664;23.278;2024-01-16T03:09:51;16.65;;;6.95;;
4466;SDS011;2246;42.664;23.278;2024-01-16T03:12:17;16.65;;;7.78;;
4466;SDS011;2246;42.664;23.278;2024-01-16T03:14:43;14.10;;;7.15;;
4466;SDS011;2246;42.664;23.278;2024-01-16T03:17:09;14.38;;;6.63;;
4466;SDS011;2246;42.664;23.278;2024-01-16T03:19:36;14.95;;;5.80;;
4466;SDS011;2246;42.664;23.278;2024-01-16T03:22:02;7.32;;;3.58;;
4466;SDS011;2246;42.664;23.278;2024-01-16T03:24:28;5.13;;;3.10;;
4466;SDS011;2246;42.664;23.278;2024-01-16T03:26:55;4.07;;;2.65;;
4466;SDS011;2246;42.664;23.278;2024-01-16T03:29:21;5.20;;;2.60;;
4466;SDS011;2246;42.664;23.278;2024-01-16T03:31:47;4.68;;;2.80;;
4466;SDS011;2246;42.664;23.278;2024-01-16T03:34:14;4.82;;;3.17;;
4466;SDS011;2246;42.664;23.278;2024-01-16T03:36:40;6.57;;;2.88;;
4466;SDS011;2246;42.664;23.278;2024-01-16T03:39:06;4.05;;;2.88;;
4466;SDS011;2246;42.664;23.278;2024-01-16T03:41:33;6.82;;;2.67;;
4466;SDS011;2246;42.664;23.278;2024-01-16T03:43:59;4.40;;;2.88;;
4466;SDS011;2246;42.664;23.278;2024-01-16T03:46:25;4.57;;;2.70;;
4466;SDS011;2246;42.664;23.278;2024-01-16T03:48:51;4.68;;;2.70;;
4466;SDS011;2246;42.664;23.278;2024-01-16T03:51:17;5.88;;;2.63;;
4466;SDS011;2246;42.664;23.278;2024-01-16T03:53:44;5.43;;;2.50;;
4466;SDS011;2246;42.664;23.278;2024-01-16T03:56:10;4.00;;;2.50;;
4466;SDS011;2246;42.664;23.278;2024-01-16T03:58:37;4.93;;;2.47;;
4466;SDS011;2246;42.664;23.278;2024-01-16T04:01:03;3.85;;;2.30;;
4466;SDS011;2246;42.664;23.278;2024-01-16T04:03:29;4.15;;;2.30;;
4466;SDS011;2246;42.664;23.278;2024-01-16T04:05:55;4.93;;;2.03;;
4466;SDS011;2246;42.664;23.278;2024-01-16T04:08:21;4.35;;;2.03;;
4466;SDS011;2246;42.664;23.278;2024-01-16T04:10:47;3.25;;;2.33;;
4466;SDS011;2246;42.664;23.278;2024-01-16T04:13:13;4.68;;;2.63;;
4466;SDS011;2246;42.664;23.278;2024-01-16T04:15:39;2.65;;;2.08;;
4466;SDS011;2246;42.664;23.278;2024-01-16T04:18:05;2.80;;;1.95;;
4466;SDS011;2246;42.664;23.278;2024-01-16T04:20:31;4.68;;;2.47;;
4466;SDS011;2246;42.664;23.278;2024-01-16T04:22:57;5.30;;;2.42;;
4466;SDS011;2246;42.664;23.278;2024-01-16T04:25:24;3.25;;;2.00;;
4466;SDS011;2246;42.664;23.278;2024-01-16T04:27:50;2.30;;;1.90;;
4466;SDS011;2246;42.664;23.278;2024-01-16T04:30:16;3.90;;;2.17;;
4466;SDS011;2246;42.664;23.278;2024-01-16T04:32:42;3.20;;;2.25;;
4466;SDS011;2246;42.664;23.278;2024-01-16T04:35:08;3.85;;;2.08;;
4466;SDS011;2246;42.664;23.278;2024-01-16T04:37:34;3.22;;;2.00;;
4466;SDS011;2246;42.664;23.278;2024-01-16T04:40:00;2.92;;;1.83;;
4466;SDS011;2246;42.664;23.278;2024-01-16T04:42:26;3.53;;;2.03;;
4466;SDS011;2246;42.664;23.278;2024-01-16T04:44:52;3.90;;;2.30;;
4466;SDS011;2246;42.664;23.278;2024-01-16T04:47:19;4.45;;;2.58;;
4466;SDS011;2246;42.664;23.278;2024-01-16T04:49:45;4.63;;;2.30;;
4466;SDS011;2246;42.664;23.278;2024-01-16T04:52:12;3.28;;;1.60;;
4466;SDS011;2246;42.664;23.278;2024-01-16T04:54:38;4.90;;;1.90;;
4466;SDS011;2246;42.664;23.278;2024-01-16T04:57:04;2.58;;;1.60;;
4466;SDS011;2246;42.664;23.278;2024-01-16T04:59:30;2.78;;;1.58;;
4466;SDS011;2246;42.664;23.278;2024-01-16T05:01:57;2.03;;;1.70;;
4466;SDS011;2246;42.664;23.278;2024-01-16T05:04:23;2.63;;;1.80;;
4466;SDS011;2246;42.664;23.278;2024-01-16T05:06:50;2.92;;;1.40;;
4466;SDS011;2246;42.664;23.278;2024-01-16T05:09:20;2.97;;;1.70;;
4466;SDS011;2246;42.664;23.278;2024-01-16T05:11:46;3.22;;;2.13;;
4466;SDS011;2246;42.664;23.278;2024-01-16T05:14:12;3.50;;;2.13;;
4466;SDS011;2246;42.664;23.278;2024-01-16T05:16:38;2.47;;;1.55;;
4466;SDS011;2246;42.664;23.278;2024-01-16T05:19:04;2.35;;;1.65;;
4466;SDS011;2246;42.664;23.278;2024-01-16T05:21:30;2.65;;;1.90;;
4466;SDS011;2246;42.664;23.278;2024-01-16T05:23:56;4.72;;;2.15;;
4466;SDS011;2246;42.664;23.278;2024-01-16T05:26:22;3.05;;;1.98;;
4466;SDS011;2246;42.664;23.278;2024-01-16T05:28:48;4.05;;;2.05;;
4466;SDS011;2246;42.664;23.278;2024-01-16T05:31:14;5.65;;;2.40;;
4466;SDS011;2246;42.664;23.278;2024-01-16T05:33:40;3.03;;;1.58;;
4466;SDS011;2246;42.664;23.278;2024-01-16T05:36:06;2.15;;;1.50;;
4466;SDS011;2246;42.664;23.278;2024-01-16T05:38:32;2.95;;;1.70;;
4466;SDS011;2246;42.664;23.278;2024-01-16T05:41:00;1.40;;;1.10;;
4466;SDS011;2246;42.664;23.278;2024-01-16T05:43:26;1.48;;;1.23;;
4466;SDS011;2246;42.664;23.278;2024-01-16T05:45:53;2.33;;;1.50;;
4466;SDS011;2246;42.664;23.278;2024-01-16T05:48:19;2.17;;;1.45;;
4466;SDS011;2246;42.664;23.278;2024-01-16T05:50:45;3.63;;;1.95;;
4466;SDS011;2246;42.664;23.278;2024-01-16T05:53:11;2.67;;;1.80;;
4466;SDS011;2246;42.664;23.278;2024-01-16T05:55:37;4.32;;;1.80;;
4466;SDS011;2246;42.664;23.278;2024-01-16T05:58:03;4.38;;;2.45;;
4466;SDS011;2246;42.664;23.278;2024-01-16T06:00:30;2.55;;;1.45;;
4466;SDS011;2246;42.664;23.278;2024-01-16T06:02:56;2.58;;;1.80;;
4466;SDS011;2246;42.664;23.278;2024-01-16T06:05:22;3.63;;;1.83;;
4466;SDS011;2246;42.664;23.278;2024-01-16T06:07:49;3.35;;;2.08;;
4466;SDS011;2246;42.664;23.278;2024-01-16T06:10:15;3.08;;;1.90;;
4466;SDS011;2246;42.664;23.278;2024-01-16T06:12:42;2.53;;;1.70;;
4466;SDS011;2246;42.664;23.278;2024-01-16T06:15:08;6.05;;;1.90;;
4466;SDS011;2246;42.664;23.278;2024-01-16T06:17:36;8.35;;;3.28;;
4466;SDS011;2246;42.664;23.278;2024-01-16T06:20:02;9.48;;;3.40;;
4466;SDS011;2246;42.664;23.278;2024-01-16T06:22:29;6.85;;;3.30;;
4466;SDS011;2246;42.664;23.278;2024-01-16T06:24:55;5.47;;;2.17;;
4466;SDS011;2246;42.664;23.278;2024-01-16T06:27:21;4.07;;;2.10;;
4466;SDS011;2246;42.664;23.278;2024-01-16T06:29:48;5.63;;;2.08;;
4466;SDS011;2246;42.664;23.278;2024-01-16T06:32:16;3.10;;;1.70;;
4466;SDS011;2246;42.664;23.278;2024-01-16T06:34:42;4.50;;;2.10;;
4466;SDS011;2246;42.664;23.278;2024-01-16T06:37:08;5.65;;;1.92;;
4466;SDS011;2246;42.664;23.278;2024-01-16T06:39:34;3.42;;;2.30;;
4466;SDS011;2246;42.664;23.278;2024-01-16T06:42:00;2.50;;;1.88;;
4466;SDS011;2246;42.664;23.278;2024-01-16T06:44:26;4.38;;;1.85;;
4466;SDS011;2246;42.664;23.278;2024-01-16T06:46:52;2.63;;;1.52;;
4466;SDS011;2246;42.664;23.278;2024-01-16T06:49:19;4.03;;;1.90;;
4466;SDS011;2246;42.664;23.278;2024-01-16T06:51:45;3.15;;;1.90;;
4466;SDS011;2246;42.664;23.278;2024-01-16T06:54:11;3.15;;;1.70;;
4466;SDS011;2246;42.664;23.278;2024-01-16T06:56:37;3.28;;;1.50;;
4466;SDS011;2246;42.664;23.278;2024-01-16T06:59:03;2.80;;;1.50;;
4466;SDS011;2246;42.664;23.278;2024-01-16T07:01:29;3.20;;;1.88;;
4466;SDS011;2246;42.664;23.278;2024-01-16T07:03:55;4.78;;;2.20;;
4466;SDS011;2246;42.664;23.278;2024-01-16T07:06:21;3.05;;;1.83;;
4466;SDS011;2246;42.664;23.278;2024-01-16T07:08:47;4.65;;;1.80;;
4466;SDS011;2246;42.664;23.278;2024-01-16T07:11:13;3.58;;;1.83;;
4466;SDS011;2246;42.664;23.278;2024-01-16T07:13:40;2.17;;;1.50;;
4466;SDS011;2246;42.664;23.278;2024-01-16T07:16:08;3.85;;;1.70;;
4466;SDS011;2246;42.664;23.278;2024-01-16T07:18:37;2.20;;;1.63;;
4466;SDS011;2246;42.664;23.278;2024-01-16T07:21:03;4.07;;;1.90;;
4466;SDS011;2246;42.664;23.278;2024-01-16T07:23:30;6.22;;;1.95;;
4466;SDS011;2246;42.664;23.278;2024-01-16T07:25:56;5.68;;;1.90;;
4466;SDS011;2246;42.664;23.278;2024-01-16T07:28:22;3.25;;;2.00;;
4466;SDS011;2246;42.664;23.278;2024-01-16T07:30:48;3.13;;;1.77;;
4466;SDS011;2246;42.664;23.278;2024-01-16T07:33:14;3.97;;;1.58;;
4466;SDS011;2246;42.664;23.278;2024-01-16T07:35:40;4.00;;;1.90;;
4466;SDS011;2246;42.664;23.278;2024-01-16T07:38:08;1.98;;;1.40;;
4466;SDS011;2246;42.664;23.278;2024-01-16T07:40:34;3.22;;;1.50;;
4466;SDS011;2246;42.664;23.278;2024-01-16T07:43:00;2.92;;;1.80;;
4466;SDS011;2246;42.664;23.278;2024-01-16T07:45:26;3.65;;;1.80;;
4466;SDS011;2246;42.664;23.278;2024-01-16T07:47:52;3.25;;;2.00;;
4466;SDS011;2246;42.664;23.278;2024-01-16T07:50:18;4.00;;;1.90;;
4466;SDS011;2246;42.664;23.278;2024-01-16T07:52:45;2.72;;;1.60;;
4466;SDS011;2246;42.664;23.278;2024-01-16T07:55:11;5.03;;;2.15;;
4466;SDS011;2246;42.664;23.278;2024-01-16T07:57:37;6.60;;;2.55;;
4466;SDS011;2246;42.664;23.278;2024-01-16T08:00:03;3.40;;;1.88;;
4466;SDS011;2246;42.664;23.278;2024-01-16T08:02:34;2.47;;;1.60;;
4466;SDS011;2246;42.664;23.278;2024-01-16T08:05:01;3.13;;;1.77;;
4466;SDS011;2246;42.664;23.278;2024-01-16T08:07:27;3.80;;;1.83;;
4466;SDS011;2246;42.664;23.278;2024-01-16T08:09:53;4.13;;;1.90;;
4466;SDS011;2246;42.664;23.278;2024-01-16T08:12:19;3.72;;;1.90;;
4466;SDS011;2246;42.664;23.278;2024-01-16T08:14:45;4.93;;;2.10;;
4466;SDS011;2246;42.664;23.278;2024-01-16T08:17:11;4.15;;;2.10;;
4466;SDS011;2246;42.664;23.278;2024-01-16T08:19:37;3.80;;;2.10;;
4466;SDS011;2246;42.664;23.278;2024-01-16T08:22:03;2.72;;;1.88;;
4466;SDS011;2246;42.664;23.278;2024-01-16T08:24:29;2.10;;;1.48;;
4466;SDS011;2246;42.664;23.278;2024-01-16T08:26:55;2.53;;;1.70;;
4466;SDS011;2246;42.664;23.278;2024-01-16T08:29:24;3.50;;;1.83;;
4466;SDS011;2246;42.664;23.278;2024-01-16T08:31:50;3.50;;;1.63;;
4466;SDS011;2246;42.664;23.278;2024-01-16T08:34:17;3.67;;;2.28;;
4466;SDS011;2246;42.664;23.278;2024-01-16T08:36:44;6.93;;;2.40;;
4466;SDS011;2246;42.664;23.278;2024-01-16T08:39:10;4.07;;;2.10;;
4466;SDS011;2246;42.664;23.278;2024-01-16T08:41:36;8.52;;;2.42;;
4466;SDS011;2246;42.664;23.278;2024-01-16T08:44:02;3.55;;;1.88;;
4466;SDS011;2246;42.664;23.278;2024-01-16T08:46:29;2.22;;;1.42;;
4466;SDS011;2246;42.664;23.278;2024-01-16T08:48:55;2.60;;;1.55;;
4466;SDS011;2246;42.664;23.278;2024-01-16T08:51:21;3.10;;;1.50;;
4466;SDS011;2246;42.664;23.278;2024-01-16T08:53:48;4.43;;;2.42;;
4466;SDS011;2246;42.664;23.278;2024-01-16T08:56:14;5.38;;;2.22;;
4466;SDS011;2246;42.664;23.278;2024-01-16T08:58:41;9.68;;;3.58;;
4466;SDS011;2246;42.664;23.278;2024-01-16T09:01:07;5.65;;;2.75;;
4466;SDS011;2246;42.664;23.278;2024-01-16T09:03:35;4.95;;;2.55;;
4466;SDS011;2246;42.664;23.278;2024-01-16T09:06:01;2.65;;;1.55;;
4466;SDS011;2246;42.664;23.278;2024-01-16T09:08:27;4.93;;;1.98;;
4466;SDS011;2246;42.664;23.278;2024-01-16T09:10:54;9.15;;;2.10;;
4466;SDS011;2246;42.664;23.278;2024-01-16T09:13:20;3.47;;;1.83;;
4466;SDS011;2246;42.664;23.278;2024-01-16T09:15:47;2.88;;;1.70;;
4466;SDS011;2246;42.664;23.278;2024-01-16T09:18:14;10.95;;;3.75;;
4466;SDS011;2246;42.664;23.278;2024-01-16T09:20:40;5.68;;;2.20;;
4466;SDS011;2246;42.664;23.278;2024-01-16T09:23:06;3.67;;;1.50;;
4466;SDS011;2246;42.664;23.278;2024-01-16T09:25:33;4.35;;;1.45;;
4466;SDS011;2246;42.664;23.278;2024-01-16T09:27:59;1.83;;;1.10;;
4466;SDS011;2246;42.664;23.278;2024-01-16T09:30:25;3.45;;;2.05;;
4466;SDS011;2246;42.664;23.278;2024-01-16T09:32:52;2.25;;;1.60;;
4466;SDS011;2246;42.664;23.278;2024-01-16T09:35:18;1.98;;;1.20;;
4466;SDS011;2246;42.664;23.278;2024-01-16T09:37:44;3.22;;;1.58;;
4466;SDS011;2246;42.664;23.278;2024-01-16T09:40:10;5.95;;;3.28;;
4466;SDS011;2246;42.664;23.278;2024-01-16T09:42:36;2.80;;;1.55;;
4466;SDS011;2246;42.664;23.278;2024-01-16T09:45:02;5.82;;;3.03;;
4466;SDS011;2246;42.664;23.278;2024-01-16T09:47:29;3.63;;;2.08;;
4466;SDS011;2246;42.664;23.278;2024-01-16T09:49:59;2.40;;;1.25;;
4466;SDS011;2246;42.664;23.278;2024-01-16T09:52:27;3.63;;;1.60;;
4466;SDS011;2246;42.664;23.278;2024-01-16T09:54:53;1.85;;;1.42;;
4466;SDS011;2246;42.664;23.278;2024-01-16T09:57:20;3.92;;;1.60;;
4466;SDS011;2246;42.664;23.278;2024-01-16T09:59:48;3.50;;;1.25;;
4466;SDS011;2246;42.664;23.278;2024-01-16T10:02:14;2.03;;;1.40;;
4466;SDS011;2246;42.664;23.278;2024-01-16T10:04:41;2.92;;;1.15;;
4466;SDS011;2246;42.664;23.278;2024-01-16T10:07:07;2.80;;;1.50;;
4466;SDS011;2246;42.664;23.278;2024-01-16T10:09:34;3.17;;;1.10;;
4466;SDS011;2246;42.664;23.278;2024-01-16T10:12:00;2.30;;;1.33;;
4466;SDS011;2246;42.664;23.278;2024-01-16T10:14:26;2.65;;;1.38;;
4466;SDS011;2246;42.664;23.278;2024-01-16T10:17:01;7.60;;;2.60;;
4466;SDS011;2246;42.664;23.278;2024-01-16T10:19:30;6.22;;;2.55;;
4466;SDS011;2246;42.664;23.278;2024-01-16T10:22:03;3.13;;;1.67;;
4466;SDS011;2246;42.664;23.278;2024-01-16T10:24:29;14.80;;;4.68;;
4466;SDS011;2246;42.664;23.278;2024-01-16T10:26:59;4.72;;;2.30;;
4466;SDS011;2246;42.664;23.278;2024-01-16T10:29:25;3.80;;;1.77;;
4466;SDS011;2246;42.664;23.278;2024-01-16T10:31:51;4.68;;;2.55;;
4466;SDS011;2246;42.664;23.278;2024-01-16T10:34:21;2.65;;;1.70;;
4466;SDS011;2246;42.664;23.278;2024-01-16T10:36:51;3.40;;;1.80;;
4466;SDS011;2246;42.664;23.278;2024-01-16T10:39:17;2.53;;;1.40;;
4466;SDS011;2246;42.664;23.278;2024-01-16T10:41:58;2.30;;;1.27;;
4466;SDS011;2246;42.664;23.278;2024-01-16T10:44:24;1.98;;;1.00;;
4466;SDS011;2246;42.664;23.278;2024-01-16T10:46:53;2.33;;;1.05;;
4466;SDS011;2246;42.664;23.278;2024-01-16T10:49:35;4.90;;;1.25;;
4466;SDS011;2246;42.664;23.278;2024-01-16T10:52:01;2.53;;;1.30;;
4466;SDS011;2246;42.664;23.278;2024-01-16T10:54:28;2.83;;;1.38;;
4466;SDS011;2246;42.664;23.278;2024-01-16T10:56:54;4.05;;;1.35;;
4466;SDS011;2246;42.664;23.278;2024-01-16T10:59:24;3.03;;;1.33;;
4466;SDS011;2246;42.664;23.278;2024-01-16T11:01:52;3.45;;;1.27;;
4466;SDS011;2246;42.664;23.278;2024-01-16T11:04:20;6.78;;;1.52;;
4466;SDS011;2246;42.664;23.278;2024-01-16T11:06:51;2.13;;;1.42;;
4466;SDS011;2246;42.664;23.278;2024-01-16T11:09:18;2.67;;;1.60;;
4466;SDS011;2246;42.664;23.278;2024-01-16T11:11:44;1.98;;;1.40;;
4466;SDS011;2246;42.664;23.278;2024-01-16T11:14:10;6.13;;;1.73;;
4466;SDS011;2246;42.664;23.278;2024-01-16T11:16:37;6.40;;;1.60;;
4466;SDS011;2246;42.664;23.278;2024-01-16T11:19:07;4.07;;;1.50;;
4466;SDS011;2246;42.664;23.278;2024-01-16T11:23:59;3.28;;;1.90;;
4466;SDS011;2246;42.664;23.278;2024-01-16T11:28:57;3.80;;;1.70;;
4466;SDS011;2246;42.664;23.278;2024-01-16T11:31:27;3.63;;;1.65;;
4466;SDS011;2246;42.664;23.278;2024-01-16T11:33:54;3.35;;;1.90;;
4466;SDS011;2246;42.664;23.278;2024-01-16T11:39:06;4.50;;;2.00;;
4466;SDS011;2246;42.664;23.278;2024-01-16T11:47:17;5.93;;;2.60;;
4466;SDS011;2246;42.664;23.278;2024-01-16T11:49:43;4.13;;;2.27;;
4466;SDS011;2246;42.664;23.278;2024-01-16T11:52:09;4.85;;;2.08;;
4466;SDS011;2246;42.664;23.278;2024-01-16T11:54:37;3.67;;;2.03;;
4466;SDS011;2246;42.664;23.278;2024-01-16T12:02:16;4.07;;;2.20;;
4466;SDS011;2246;42.664;23.278;2024-01-16T12:04:51;7.57;;;2.13;;
4466;SDS011;2246;42.664;23.278;2024-01-16T12:07:18;4.25;;;2.22;;
4466;SDS011;2246;42.664;23.278;2024-01-16T12:09:44;7.90;;;2.25;;
4466;SDS011;2246;42.664;23.278;2024-01-16T12:12:10;3.13;;;1.45;;
4466;SDS011;2246;42.664;23.278;2024-01-16T12:14:37;3.70;;;1.20;;
4466;SDS011;2246;42.664;23.278;2024-01-16T12:17:13;4.85;;;2.03;;
4466;SDS011;2246;42.664;23.278;2024-01-16T12:19:39;1.70;;;1.17;;
4466;SDS011;2246;42.664;23.278;2024-01-16T12:22:10;3.72;;;1.42;;
4466;SDS011;2246;42.664;23.278;2024-01-16T12:24:38;3.92;;;1.80;;
4466;SDS011;2246;42.664;23.278;2024-01-16T12:27:05;5.93;;;1.75;;
4466;SDS011;2246;42.664;23.278;2024-01-16T12:29:31;6.38;;;1.48;;
4466;SDS011;2246;42.664;23.278;2024-01-16T12:32:04;4.03;;;2.08;;
4466;SDS011;2246;42.664;23.278;2024-01-16T12:34:31;3.30;;;1.55;;
4466;SDS011;2246;42.664;23.278;2024-01-16T12:37:04;4.45;;;2.22;;
4466;SDS011;2246;42.664;23.278;2024-01-16T12:39:30;2.35;;;1.50;;
4466;SDS011;2246;42.664;23.278;2024-01-16T12:41:56;2.25;;;1.48;;
4466;SDS011;2246;42.664;23.278;2024-01-16T12:44:27;4.22;;;1.85;;
4466;SDS011;2246;42.664;23.278;2024-01-16T12:46:54;4.70;;;2.15;;
4466;SDS011;2246;42.664;23.278;2024-01-16T12:49:24;3.33;;;1.60;;
4466;SDS011;2246;42.664;23.278;2024-01-16T12:51:50;1.92;;;1.45;;
4466;SDS011;2246;42.664;23.278;2024-01-16T12:54:17;2.38;;;1.45;;
4466;SDS011;2246;42.664;23.278;2024-01-16T12:56:43;3.28;;;1.73;;
4466;SDS011;2246;42.664;23.278;2024-01-16T12:59:10;2.63;;;1.83;;
4466;SDS011;2246;42.664;23.278;2024-01-16T13:01:39;4.75;;;1.90;;
4466;SDS011;2246;42.664;23.278;2024-01-16T13:04:06;2.88;;;1.92;;
4466;SDS011;2246;42.664;23.278;2024-01-16T13:06:33;4.38;;;2.10;;
4466;SDS011;2246;42.664;23.278;2024-01-16T13:09:06;3.15;;;1.90;;
4466;SDS011;2246;42.664;23.278;2024-01-16T13:11:51;3.97;;;1.90;;
4466;SDS011;2246;42.664;23.278;2024-01-16T13:14:18;4.72;;;1.98;;
4466;SDS011;2246;42.664;23.278;2024-01-16T13:16:46;4.25;;;1.50;;
4466;SDS011;2246;42.664;23.278;2024-01-16T13:19:15;5.00;;;1.80;;
4466;SDS011;2246;42.664;23.278;2024-01-16T13:21:41;3.65;;;1.40;;
4466;SDS011;2246;42.664;23.278;2024-01-16T13:24:07;2.40;;;1.50;;
4466;SDS011;2246;42.664;23.278;2024-01-16T13:26:33;5.57;;;2.58;;
4466;SDS011;2246;42.664;23.278;2024-01-16T13:29:00;2.72;;;1.85;;
4466;SDS011;2246;42.664;23.278;2024-01-16T13:31:26;8.07;;;1.67;;
4466;SDS011;2246;42.664;23.278;2024-01-16T13:33:52;2.70;;;1.50;;
4466;SDS011;2246;42.664;23.278;2024-01-16T13:36:18;3.28;;;1.95;;
4466;SDS011;2246;42.664;23.278;2024-01-16T13:38:45;2.95;;;1.83;;
4466;SDS011;2246;42.664;23.278;2024-01-16T13:41:11;3.40;;;2.00;;
4466;SDS011;2246;42.664;23.278;2024-01-16T13:43:37;8.23;;;3.13;;
4466;SDS011;2246;42.664;23.278;2024-01-16T13:46:03;4.13;;;2.28;;
4466;SDS011;2246;42.664;23.278;2024-01-16T13:48:29;4.15;;;1.92;;
4466;SDS011;2246;42.664;23.278;2024-01-16T13:50:55;2.70;;;1.90;;
4466;SDS011;2246;42.664;23.278;2024-01-16T13:53:21;3.17;;;2.00;;
4466;SDS011;2246;42.664;23.278;2024-01-16T13:55:48;6.70;;;2.25;;
4466;SDS011;2246;42.664;23.278;2024-01-16T13:58:14;7.45;;;2.03;;
4466;SDS011;2246;42.664;23.278;2024-01-16T14:00:40;3.38;;;1.67;;
4466;SDS011;2246;42.664;23.278;2024-01-16T14:03:06;5.45;;;1.70;;
4466;SDS011;2246;42.664;23.278;2024-01-16T14:05:32;4.63;;;2.58;;
4466;SDS011;2246;42.664;23.278;2024-01-16T14:07:58;3.22;;;2.30;;
4466;SDS011;2246;42.664;23.278;2024-01-16T14:10:24;5.13;;;2.17;;
4466;SDS011;2246;42.664;23.278;2024-01-16T14:12:50;4.40;;;2.10;;
4466;SDS011;2246;42.664;23.278;2024-01-16T14:15:17;4.75;;;2.20;;
4466;SDS011;2246;42.664;23.278;2024-01-16T14:17:45;4.78;;;2.30;;
4466;SDS011;2246;42.664;23.278;2024-01-16T14:20:12;3.97;;;2.45;;
4466;SDS011;2246;42.664;23.278;2024-01-16T14:22:38;5.38;;;2.70;;
4466;SDS011;2246;42.664;23.278;2024-01-16T14:25:06;9.75;;;2.65;;
4466;SDS011;2246;42.664;23.278;2024-01-16T14:27:39;6.45;;;2.88;;
4466;SDS011;2246;42.664;23.278;2024-01-16T14:30:09;21.65;;;6.43;;
4466;SDS011;2246;42.664;23.278;2024-01-16T14:32:36;14.43;;;5.10;;
4466;SDS011;2246;42.664;23.278;2024-01-16T14:35:06;5.55;;;2.90;;
4466;SDS011;2246;42.664;23.278;2024-01-16T14:37:32;6.05;;;2.60;;
4466;SDS011;2246;42.664;23.278;2024-01-16T14:39:59;7.78;;;2.90;;
4466;SDS011;2246;42.664;23.278;2024-01-16T14:42:28;6.40;;;3.03;;
4466;SDS011;2246;42.664;23.278;2024-01-16T14:44:54;11.77;;;3.13;;
4466;SDS011;2246;42.664;23.278;2024-01-16T14:47:21;13.20;;;3.53;;
4466;SDS011;2246;42.664;23.278;2024-01-16T14:49:49;4.78;;;2.50;;
4466;SDS011;2246;42.664;23.278;2024-01-16T14:52:15;5.20;;;2.70;;
4466;SDS011;2246;42.664;23.278;2024-01-16T14:54:43;5.07;;;2.72;;
4466;SDS011;2246;42.664;23.278;2024-01-16T14:57:09;7.18;;;3.40;;
4466;SDS011;2246;42.664;23.278;2024-01-16T14:59:36;8.13;;;3.22;;
4466;SDS011;2246;42.664;23.278;2024-01-16T15:02:02;6.72;;;3.00;;
4466;SDS011;2246;42.664;23.278;2024-01-16T15:04:37;6.10;;;3.05;;
4466;SDS011;2246;42.664;23.278;2024-01-16T15:07:03;6.32;;;3.13;;
4466;SDS011;2246;42.664;23.278;2024-01-16T15:09:29;7.05;;;3.45;;
4466;SDS011;2246;42.664;23.278;2024-01-16T15:11:59;8.05;;;3.08;;
4466;SDS011;2246;42.664;23.278;2024-01-16T15:14:25;5.65;;;2.95;;